sensor_id;sensor_type;location;lat;lon;timestamp;temperature;humidity
16271;DHT22;8243;49.048;8.396;2023-03-13T00:01:00;11.70;57.80
16271;DHT22;8243;49.048;8.396;2023-03-13T00:03:26;11.70;57.80
16271;DHT22;8243;49.048;8.396;2023-03-13T00:05:56;11.80;57.20
16271;DHT22;8243;49.048;8.396;2023-03-13T00:08:22;11.80;57.30
16271;DHT22;8243;49.048;8.396;2023-03-13T00:10:48;11.80;57.30
16271;DHT22;8243;49.048;8.396;2023-03-13T00:13:13;11.80;57.20
16271;DHT22;8243;49.048;8.396;2023-03-13T00:15:39;11.80;57.00
16271;DHT22;8243;49.048;8.396;2023-03-13T00:18:04;11.80;56.70
16271;DHT22;8243;49.048;8.396;2023-03-13T00:20:30;11.80;57.10
16271;DHT22;8243;49.048;8.396;2023-03-13T00:22:56;11.70;57.20
16271;DHT22;8243;49.048;8.396;2023-03-13T00:25:21;11.80;56.80
16271;DHT22;8243;49.048;8.396;2023-03-13T00:27:47;11.70;57.10
16271;DHT22;8243;49.048;8.396;2023-03-13T00:30:13;11.70;57.00
16271;DHT22;8243;49.048;8.396;2023-03-13T00:32:43;11.70;57.10
16271;DHT22;8243;49.048;8.396;2023-03-13T00:35:11;11.70;57.10
16271;DHT22;8243;49.048;8.396;2023-03-13T00:37:36;11.70;57.50
16271;DHT22;8243;49.048;8.396;2023-03-13T00:40:03;11.70;57.40
16271;DHT22;8243;49.048;8.396;2023-03-13T00:42:29;11.70;57.30
16271;DHT22;8243;49.048;8.396;2023-03-13T00:44:55;11.70;57.30
16271;DHT22;8243;49.048;8.396;2023-03-13T00:47:21;11.70;57.10
16271;DHT22;8243;49.048;8.396;2023-03-13T00:49:46;11.70;56.70
16271;DHT22;8243;49.048;8.396;2023-03-13T00:52:11;11.70;56.80
16271;DHT22;8243;49.048;8.396;2023-03-13T00:54:37;11.70;56.70
16271;DHT22;8243;49.048;8.396;2023-03-13T00:57:03;11.80;56.50
16271;DHT22;8243;49.048;8.396;2023-03-13T00:59:29;11.80;56.40
16271;DHT22;8243;49.048;8.396;2023-03-13T01:01:54;11.80;56.30
16271;DHT22;8243;49.048;8.396;2023-03-13T01:04:20;11.80;56.60
16271;DHT22;8243;49.048;8.396;2023-03-13T01:06:45;11.80;56.40
16271;DHT22;8243;49.048;8.396;2023-03-13T01:09:13;11.80;56.50
16271;DHT22;8243;49.048;8.396;2023-03-13T01:11:40;11.80;56.50
16271;DHT22;8243;49.048;8.396;2023-03-13T01:14:09;11.80;56.30
16271;DHT22;8243;49.048;8.396;2023-03-13T01:16:35;11.80;56.60
16271;DHT22;8243;49.048;8.396;2023-03-13T01:19:10;11.70;56.70
16271;DHT22;8243;49.048;8.396;2023-03-13T01:21:37;11.70;57.00
16271;DHT22;8243;49.048;8.396;2023-03-13T01:24:03;11.70;57.00
16271;DHT22;8243;49.048;8.396;2023-03-13T01:26:29;11.70;56.70
16271;DHT22;8243;49.048;8.396;2023-03-13T01:28:54;11.80;56.60
16271;DHT22;8243;49.048;8.396;2023-03-13T01:31:22;11.80;56.50
16271;DHT22;8243;49.048;8.396;2023-03-13T01:33:52;11.80;56.30
16271;DHT22;8243;49.048;8.396;2023-03-13T01:36:18;11.70;56.50
16271;DHT22;8243;49.048;8.396;2023-03-13T01:38:47;11.70;56.70
16271;DHT22;8243;49.048;8.396;2023-03-13T01:41:13;11.70;56.90
16271;DHT22;8243;49.048;8.396;2023-03-13T01:43:39;11.70;56.60
16271;DHT22;8243;49.048;8.396;2023-03-13T01:48:57;11.80;56.00
16271;DHT22;8243;49.048;8.396;2023-03-13T01:54:11;11.80;58.00
16271;DHT22;8243;49.048;8.396;2023-03-13T01:56:50;11.80;59.80
16271;DHT22;8243;49.048;8.396;2023-03-13T01:59:24;11.90;60.70
16271;DHT22;8243;49.048;8.396;2023-03-13T02:01:54;11.90;61.50
16271;DHT22;8243;49.048;8.396;2023-03-13T02:04:22;11.90;62.30
16271;DHT22;8243;49.048;8.396;2023-03-13T02:06:50;11.90;62.60
16271;DHT22;8243;49.048;8.396;2023-03-13T02:09:21;11.90;63.20
16271;DHT22;8243;49.048;8.396;2023-03-13T02:12:02;12.00;64.30
16271;DHT22;8243;49.048;8.396;2023-03-13T02:14:32;11.90;65.50
16271;DHT22;8243;49.048;8.396;2023-03-13T02:16:59;11.90;67.40
16271;DHT22;8243;49.048;8.396;2023-03-13T02:22:44;11.90;69.90
16271;DHT22;8243;49.048;8.396;2023-03-13T02:27:44;11.90;74.40
16271;DHT22;8243;49.048;8.396;2023-03-13T02:30:11;11.90;75.40
16271;DHT22;8243;49.048;8.396;2023-03-13T02:32:38;11.90;76.20
16271;DHT22;8243;49.048;8.396;2023-03-13T02:35:10;11.90;78.20
16271;DHT22;8243;49.048;8.396;2023-03-13T02:37:37;11.90;82.30
16271;DHT22;8243;49.048;8.396;2023-03-13T02:40:07;11.80;84.10
16271;DHT22;8243;49.048;8.396;2023-03-13T02:42:42;11.80;87.00
16271;DHT22;8243;49.048;8.396;2023-03-13T02:45:09;11.80;87.60
16271;DHT22;8243;49.048;8.396;2023-03-13T02:47:35;11.80;87.40
16271;DHT22;8243;49.048;8.396;2023-03-13T02:50:01;11.80;87.90
16271;DHT22;8243;49.048;8.396;2023-03-13T02:52:35;11.80;89.60
16271;DHT22;8243;49.048;8.396;2023-03-13T02:55:13;11.80;90.80
16271;DHT22;8243;49.048;8.396;2023-03-13T02:57:42;11.80;91.70
16271;DHT22;8243;49.048;8.396;2023-03-13T03:00:08;11.80;91.70
16271;DHT22;8243;49.048;8.396;2023-03-13T03:02:37;11.90;91.60
16271;DHT22;8243;49.048;8.396;2023-03-13T03:05:03;11.90;91.80
16271;DHT22;8243;49.048;8.396;2023-03-13T03:07:28;11.90;92.20
16271;DHT22;8243;49.048;8.396;2023-03-13T03:09:54;11.90;92.80
16271;DHT22;8243;49.048;8.396;2023-03-13T03:12:20;11.90;93.40
16271;DHT22;8243;49.048;8.396;2023-03-13T03:14:45;11.90;94.20
16271;DHT22;8243;49.048;8.396;2023-03-13T03:17:11;11.90;95.60
16271;DHT22;8243;49.048;8.396;2023-03-13T03:19:37;11.90;96.60
16271;DHT22;8243;49.048;8.396;2023-03-13T03:22:03;12.00;96.90
16271;DHT22;8243;49.048;8.396;2023-03-13T03:24:29;12.00;97.90
16271;DHT22;8243;49.048;8.396;2023-03-13T03:26:54;12.00;99.20
16271;DHT22;8243;49.048;8.396;2023-03-13T03:29:20;11.90;99.90
16271;DHT22;8243;49.048;8.396;2023-03-13T03:31:45;11.90;99.90
16271;DHT22;8243;49.048;8.396;2023-03-13T03:34:11;11.90;99.90
16271;DHT22;8243;49.048;8.396;2023-03-13T03:36:36;11.90;99.90
16271;DHT22;8243;49.048;8.396;2023-03-13T03:39:02;11.90;99.90
16271;DHT22;8243;49.048;8.396;2023-03-13T03:41:29;12.00;99.90
16271;DHT22;8243;49.048;8.396;2023-03-13T03:43:54;11.90;99.90
16271;DHT22;8243;49.048;8.396;2023-03-13T03:46:20;11.90;99.90
16271;DHT22;8243;49.048;8.396;2023-03-13T03:48:45;12.00;99.90
16271;DHT22;8243;49.048;8.396;2023-03-13T03:51:11;12.10;99.90
16271;DHT22;8243;49.048;8.396;2023-03-13T03:53:37;12.10;99.90
16271;DHT22;8243;49.048;8.396;2023-03-13T03:56:03;12.10;99.90
16271;DHT22;8243;49.048;8.396;2023-03-13T03:58:28;12.10;99.90
16271;DHT22;8243;49.048;8.396;2023-03-13T04:00:56;12.10;99.90
16271;DHT22;8243;49.048;8.396;2023-03-13T04:03:22;12.10;99.90
16271;DHT22;8243;49.048;8.396;2023-03-13T04:05:48;12.10;99.90
16271;DHT22;8243;49.048;8.396;2023-03-13T04:08:13;12.10;99.90
16271;DHT22;8243;49.048;8.396;2023-03-13T04:10:39;12.10;99.90
16271;DHT22;8243;49.048;8.396;2023-03-13T04:13:05;12.10;99.90
16271;DHT22;8243;49.048;8.396;2023-03-13T04:15:30;12.10;99.90
16271;DHT22;8243;49.048;8.396;2023-03-13T04:17:56;12.10;99.90
16271;DHT22;8243;49.048;8.396;2023-03-13T04:20:21;12.10;99.90
16271;DHT22;8243;49.048;8.396;2023-03-13T04:22:47;12.10;99.90
16271;DHT22;8243;49.048;8.396;2023-03-13T04:25:12;12.20;99.90
16271;DHT22;8243;49.048;8.396;2023-03-13T04:27:38;12.20;99.90
16271;DHT22;8243;49.048;8.396;2023-03-13T04:30:04;12.20;99.90
16271;DHT22;8243;49.048;8.396;2023-03-13T04:32:31;12.10;99.90
16271;DHT22;8243;49.048;8.396;2023-03-13T04:34:56;12.10;99.90
16271;DHT22;8243;49.048;8.396;2023-03-13T04:37:23;12.10;99.90
16271;DHT22;8243;49.048;8.396;2023-03-13T04:39:48;12.10;99.90
16271;DHT22;8243;49.048;8.396;2023-03-13T04:42:14;12.10;99.90
16271;DHT22;8243;49.048;8.396;2023-03-13T04:44:39;12.20;99.90
16271;DHT22;8243;49.048;8.396;2023-03-13T04:47:05;12.20;99.90
16271;DHT22;8243;49.048;8.396;2023-03-13T04:49:31;12.30;99.90
16271;DHT22;8243;49.048;8.396;2023-03-13T04:51:56;12.30;99.90
16271;DHT22;8243;49.048;8.396;2023-03-13T04:54:22;12.30;99.90
16271;DHT22;8243;49.048;8.396;2023-03-13T04:56:47;12.40;99.90
16271;DHT22;8243;49.048;8.396;2023-03-13T04:59:14;12.40;99.90
16271;DHT22;8243;49.048;8.396;2023-03-13T05:01:40;12.40;99.90
16271;DHT22;8243;49.048;8.396;2023-03-13T05:04:06;12.40;99.90
16271;DHT22;8243;49.048;8.396;2023-03-13T05:06:31;12.50;99.90
16271;DHT22;8243;49.048;8.396;2023-03-13T05:08:57;12.50;99.90
16271;DHT22;8243;49.048;8.396;2023-03-13T05:11:23;12.50;99.90
16271;DHT22;8243;49.048;8.396;2023-03-13T05:13:48;12.60;99.90
16271;DHT22;8243;49.048;8.396;2023-03-13T05:16:14;12.60;99.90
16271;DHT22;8243;49.048;8.396;2023-03-13T05:18:39;12.60;99.90
16271;DHT22;8243;49.048;8.396;2023-03-13T05:21:06;12.40;99.90
16271;DHT22;8243;49.048;8.396;2023-03-13T05:23:31;12.40;99.90
16271;DHT22;8243;49.048;8.396;2023-03-13T05:25:57;12.30;99.90
16271;DHT22;8243;49.048;8.396;2023-03-13T05:28:23;12.30;99.90
16271;DHT22;8243;49.048;8.396;2023-03-13T05:30:49;12.30;99.90
16271;DHT22;8243;49.048;8.396;2023-03-13T05:33:14;12.30;99.90
16271;DHT22;8243;49.048;8.396;2023-03-13T05:35:40;12.30;99.90
16271;DHT22;8243;49.048;8.396;2023-03-13T05:38:06;12.30;99.90
16271;DHT22;8243;49.048;8.396;2023-03-13T05:40:31;12.40;99.90
16271;DHT22;8243;49.048;8.396;2023-03-13T05:42:57;12.40;99.90
16271;DHT22;8243;49.048;8.396;2023-03-13T05:45:23;12.40;99.90
16271;DHT22;8243;49.048;8.396;2023-03-13T05:47:50;12.40;99.90
16271;DHT22;8243;49.048;8.396;2023-03-13T05:50:15;12.40;99.90
16271;DHT22;8243;49.048;8.396;2023-03-13T05:52:41;12.50;99.90
16271;DHT22;8243;49.048;8.396;2023-03-13T05:55:06;12.50;99.90
16271;DHT22;8243;49.048;8.396;2023-03-13T05:57:32;12.50;99.90
16271;DHT22;8243;49.048;8.396;2023-03-13T05:59:58;12.50;99.90
16271;DHT22;8243;49.048;8.396;2023-03-13T06:02:24;12.60;99.90
16271;DHT22;8243;49.048;8.396;2023-03-13T06:04:50;12.60;99.90
16271;DHT22;8243;49.048;8.396;2023-03-13T06:07:15;12.60;99.90
16271;DHT22;8243;49.048;8.396;2023-03-13T06:09:41;12.70;99.90
16271;DHT22;8243;49.048;8.396;2023-03-13T06:12:08;12.70;99.90
16271;DHT22;8243;49.048;8.396;2023-03-13T06:14:33;12.70;99.90
16271;DHT22;8243;49.048;8.396;2023-03-13T06:16:59;12.70;99.90
16271;DHT22;8243;49.048;8.396;2023-03-13T06:19:25;12.80;99.90
16271;DHT22;8243;49.048;8.396;2023-03-13T06:21:51;12.80;99.90
16271;DHT22;8243;49.048;8.396;2023-03-13T06:24:16;12.80;99.90
16271;DHT22;8243;49.048;8.396;2023-03-13T06:26:42;12.80;99.90
16271;DHT22;8243;49.048;8.396;2023-03-13T06:29:09;12.80;99.90
16271;DHT22;8243;49.048;8.396;2023-03-13T06:31:34;12.80;99.90
16271;DHT22;8243;49.048;8.396;2023-03-13T06:34:00;12.80;99.90
16271;DHT22;8243;49.048;8.396;2023-03-13T06:36:25;12.80;99.90
16271;DHT22;8243;49.048;8.396;2023-03-13T06:38:51;12.80;99.90
16271;DHT22;8243;49.048;8.396;2023-03-13T06:41:16;12.80;99.90
16271;DHT22;8243;49.048;8.396;2023-03-13T06:43:42;12.80;99.90
16271;DHT22;8243;49.048;8.396;2023-03-13T06:46:18;12.80;99.90
16271;DHT22;8243;49.048;8.396;2023-03-13T06:48:44;12.80;99.90
16271;DHT22;8243;49.048;8.396;2023-03-13T06:51:15;12.80;99.90
16271;DHT22;8243;49.048;8.396;2023-03-13T06:53:42;12.80;99.90
16271;DHT22;8243;49.048;8.396;2023-03-13T06:56:08;12.80;99.90
16271;DHT22;8243;49.048;8.396;2023-03-13T06:58:34;12.80;99.90
16271;DHT22;8243;49.048;8.396;2023-03-13T07:01:06;12.90;99.90
16271;DHT22;8243;49.048;8.396;2023-03-13T07:03:32;12.90;99.90
16271;DHT22;8243;49.048;8.396;2023-03-13T07:05:58;13.00;99.90
16271;DHT22;8243;49.048;8.396;2023-03-13T07:08:25;12.90;99.90
16271;DHT22;8243;49.048;8.396;2023-03-13T07:10:51;13.00;99.90
16271;DHT22;8243;49.048;8.396;2023-03-13T07:13:18;13.00;99.90
16271;DHT22;8243;49.048;8.396;2023-03-13T07:15:46;13.00;99.90
16271;DHT22;8243;49.048;8.396;2023-03-13T07:18:13;13.00;99.90
16271;DHT22;8243;49.048;8.396;2023-03-13T07:20:38;13.10;99.90
16271;DHT22;8243;49.048;8.396;2023-03-13T07:23:04;13.20;99.90
16271;DHT22;8243;49.048;8.396;2023-03-13T07:25:29;13.20;99.90
16271;DHT22;8243;49.048;8.396;2023-03-13T07:27:55;13.20;99.90
16271;DHT22;8243;49.048;8.396;2023-03-13T07:30:21;13.30;99.90
16271;DHT22;8243;49.048;8.396;2023-03-13T07:32:46;13.30;99.90
16271;DHT22;8243;49.048;8.396;2023-03-13T07:35:12;13.30;99.90
16271;DHT22;8243;49.048;8.396;2023-03-13T07:37:37;13.40;99.90
16271;DHT22;8243;49.048;8.396;2023-03-13T07:40:03;13.40;99.90
16271;DHT22;8243;49.048;8.396;2023-03-13T07:42:29;13.40;99.90
16271;DHT22;8243;49.048;8.396;2023-03-13T07:44:55;13.50;99.90
16271;DHT22;8243;49.048;8.396;2023-03-13T07:47:20;13.60;99.90
16271;DHT22;8243;49.048;8.396;2023-03-13T07:49:46;13.70;99.90
16271;DHT22;8243;49.048;8.396;2023-03-13T07:52:11;13.70;99.90
16271;DHT22;8243;49.048;8.396;2023-03-13T07:54:37;13.90;99.90
16271;DHT22;8243;49.048;8.396;2023-03-13T07:57:03;13.90;99.90
16271;DHT22;8243;49.048;8.396;2023-03-13T07:59:29;14.00;99.90
16271;DHT22;8243;49.048;8.396;2023-03-13T08:01:55;14.20;99.90
16271;DHT22;8243;49.048;8.396;2023-03-13T08:04:20;14.20;99.90
16271;DHT22;8243;49.048;8.396;2023-03-13T08:06:46;14.40;99.90
16271;DHT22;8243;49.048;8.396;2023-03-13T08:09:12;14.40;99.90
16271;DHT22;8243;49.048;8.396;2023-03-13T08:11:38;14.40;99.90
16271;DHT22;8243;49.048;8.396;2023-03-13T08:14:08;14.40;99.90
16271;DHT22;8243;49.048;8.396;2023-03-13T08:16:34;14.50;98.30
16271;DHT22;8243;49.048;8.396;2023-03-13T08:19:01;14.50;97.50
16271;DHT22;8243;49.048;8.396;2023-03-13T08:21:34;14.60;97.50
16271;DHT22;8243;49.048;8.396;2023-03-13T08:24:03;14.60;97.00
16271;DHT22;8243;49.048;8.396;2023-03-13T08:26:31;14.60;96.40
16271;DHT22;8243;49.048;8.396;2023-03-13T08:28:59;14.60;96.20
16271;DHT22;8243;49.048;8.396;2023-03-13T08:31:30;14.60;95.80
16271;DHT22;8243;49.048;8.396;2023-03-13T08:33:56;14.60;95.70
16271;DHT22;8243;49.048;8.396;2023-03-13T08:36:31;14.50;95.80
16271;DHT22;8243;49.048;8.396;2023-03-13T08:39:03;14.40;95.90
16271;DHT22;8243;49.048;8.396;2023-03-13T08:41:32;14.50;95.80
16271;DHT22;8243;49.048;8.396;2023-03-13T08:43:59;14.40;95.60
16271;DHT22;8243;49.048;8.396;2023-03-13T08:46:25;14.40;95.30
16271;DHT22;8243;49.048;8.396;2023-03-13T08:48:52;14.50;95.40
16271;DHT22;8243;49.048;8.396;2023-03-13T08:51:20;14.50;95.10
16271;DHT22;8243;49.048;8.396;2023-03-13T08:53:46;14.60;94.80
16271;DHT22;8243;49.048;8.396;2023-03-13T08:56:14;14.70;94.20
16271;DHT22;8243;49.048;8.396;2023-03-13T08:58:41;14.70;93.60
16271;DHT22;8243;49.048;8.396;2023-03-13T09:01:12;14.70;93.30
16271;DHT22;8243;49.048;8.396;2023-03-13T09:03:39;14.70;93.10
16271;DHT22;8243;49.048;8.396;2023-03-13T09:06:05;14.70;92.90
16271;DHT22;8243;49.048;8.396;2023-03-13T09:08:32;14.70;92.90
16271;DHT22;8243;49.048;8.396;2023-03-13T09:11:00;14.70;92.90
16271;DHT22;8243;49.048;8.396;2023-03-13T09:13:27;15.20;91.30
16271;DHT22;8243;49.048;8.396;2023-03-13T09:15:58;15.50;88.10
16271;DHT22;8243;49.048;8.396;2023-03-13T09:18:24;15.80;83.50
16271;DHT22;8243;49.048;8.396;2023-03-13T09:20:50;16.00;81.10
16271;DHT22;8243;49.048;8.396;2023-03-13T09:23:16;16.70;75.40
16271;DHT22;8243;49.048;8.396;2023-03-13T09:25:42;17.40;68.40
16271;DHT22;8243;49.048;8.396;2023-03-13T09:28:08;17.90;61.80
16271;DHT22;8243;49.048;8.396;2023-03-13T09:30:33;18.20;59.20
16271;DHT22;8243;49.048;8.396;2023-03-13T09:32:59;18.50;55.00
16271;DHT22;8243;49.048;8.396;2023-03-13T09:35:24;18.20;53.70
16271;DHT22;8243;49.048;8.396;2023-03-13T09:37:50;17.90;54.30
16271;DHT22;8243;49.048;8.396;2023-03-13T09:40:18;17.60;53.40
16271;DHT22;8243;49.048;8.396;2023-03-13T09:42:50;17.10;54.60
16271;DHT22;8243;49.048;8.396;2023-03-13T09:45:32;16.90;56.50
16271;DHT22;8243;49.048;8.396;2023-03-13T09:48:18;16.70;57.20
16271;DHT22;8243;49.048;8.396;2023-03-13T09:51:14;16.60;57.50
16271;DHT22;8243;49.048;8.396;2023-03-13T09:53:46;16.50;59.60
16271;DHT22;8243;49.048;8.396;2023-03-13T09:56:23;16.40;59.50
16271;DHT22;8243;49.048;8.396;2023-03-13T09:59:00;16.20;60.10
16271;DHT22;8243;49.048;8.396;2023-03-13T10:01:28;16.20;61.20
16271;DHT22;8243;49.048;8.396;2023-03-13T10:04:07;16.30;61.30
16271;DHT22;8243;49.048;8.396;2023-03-13T10:06:41;16.50;61.20
16271;DHT22;8243;49.048;8.396;2023-03-13T10:09:16;16.60;61.20
16271;DHT22;8243;49.048;8.396;2023-03-13T10:12:03;16.70;59.80
16271;DHT22;8243;49.048;8.396;2023-03-13T10:17:36;17.10;58.40
16271;DHT22;8243;49.048;8.396;2023-03-13T10:20:27;17.00;56.50
16271;DHT22;8243;49.048;8.396;2023-03-13T10:23:06;16.80;58.00
16271;DHT22;8243;49.048;8.396;2023-03-13T10:25:33;16.80;57.50
16271;DHT22;8243;49.048;8.396;2023-03-13T10:28:00;16.90;57.40
16271;DHT22;8243;49.048;8.396;2023-03-13T10:33:18;16.90;56.50
16271;DHT22;8243;49.048;8.396;2023-03-13T10:35:44;16.90;56.20
16271;DHT22;8243;49.048;8.396;2023-03-13T10:38:28;16.90;55.10
16271;DHT22;8243;49.048;8.396;2023-03-13T10:40:59;16.90;55.00
16271;DHT22;8243;49.048;8.396;2023-03-13T10:43:26;16.90;54.90
16271;DHT22;8243;49.048;8.396;2023-03-13T10:45:52;16.90;54.70
16271;DHT22;8243;49.048;8.396;2023-03-13T10:48:20;17.00;54.70
16271;DHT22;8243;49.048;8.396;2023-03-13T10:50:48;17.20;53.30
16271;DHT22;8243;49.048;8.396;2023-03-13T10:58:32;18.90;44.20
16271;DHT22;8243;49.048;8.396;2023-03-13T11:01:21;19.20;42.10
16271;DHT22;8243;49.048;8.396;2023-03-13T11:03:48;19.60;39.30
16271;DHT22;8243;49.048;8.396;2023-03-13T11:06:23;20.10;37.30
16271;DHT22;8243;49.048;8.396;2023-03-13T11:08:49;20.00;34.30
16271;DHT22;8243;49.048;8.396;2023-03-13T11:11:17;19.90;34.10
16271;DHT22;8243;49.048;8.396;2023-03-13T11:13:44;19.80;32.80
16271;DHT22;8243;49.048;8.396;2023-03-13T11:16:20;19.80;33.30
16271;DHT22;8243;49.048;8.396;2023-03-13T11:24:09;20.20;31.30
16271;DHT22;8243;49.048;8.396;2023-03-13T11:29:42;20.20;29.40
16271;DHT22;8243;49.048;8.396;2023-03-13T11:32:41;20.30;29.30
16271;DHT22;8243;49.048;8.396;2023-03-13T11:35:20;20.40;28.10
16271;DHT22;8243;49.048;8.396;2023-03-13T11:37:50;20.50;28.10
16271;DHT22;8243;49.048;8.396;2023-03-13T11:40:33;20.50;27.40
16271;DHT22;8243;49.048;8.396;2023-03-13T11:46:05;20.50;27.40
16271;DHT22;8243;49.048;8.396;2023-03-13T11:48:42;20.80;26.80
16271;DHT22;8243;49.048;8.396;2023-03-13T11:51:19;21.10;26.50
16271;DHT22;8243;49.048;8.396;2023-03-13T11:54:33;21.00;24.80
16271;DHT22;8243;49.048;8.396;2023-03-13T11:57:24;20.60;25.80
16271;DHT22;8243;49.048;8.396;2023-03-13T12:00:21;20.90;25.00
16271;DHT22;8243;49.048;8.396;2023-03-13T12:02:56;20.70;24.90
16271;DHT22;8243;49.048;8.396;2023-03-13T12:05:43;20.70;25.00
16271;DHT22;8243;49.048;8.396;2023-03-13T12:11:12;21.10;24.50
16271;DHT22;8243;49.048;8.396;2023-03-13T12:13:53;21.70;22.80
16271;DHT22;8243;49.048;8.396;2023-03-13T12:16:29;21.70;22.40
16271;DHT22;8243;49.048;8.396;2023-03-13T12:18:58;21.50;22.20
16271;DHT22;8243;49.048;8.396;2023-03-13T12:21:29;21.40;22.60
16271;DHT22;8243;49.048;8.396;2023-03-13T12:26:47;22.00;21.60
16271;DHT22;8243;49.048;8.396;2023-03-13T12:29:24;21.90;21.60
16271;DHT22;8243;49.048;8.396;2023-03-13T12:35:13;22.10;20.70
16271;DHT22;8243;49.048;8.396;2023-03-13T12:40:26;22.20;20.70
16271;DHT22;8243;49.048;8.396;2023-03-13T12:43:09;22.30;19.80
16271;DHT22;8243;49.048;8.396;2023-03-13T12:45:46;22.40;19.70
16271;DHT22;8243;49.048;8.396;2023-03-13T12:48:43;22.20;19.60
16271;DHT22;8243;49.048;8.396;2023-03-13T12:54:09;22.30;19.20
16271;DHT22;8243;49.048;8.396;2023-03-13T12:56:42;22.10;18.10
16271;DHT22;8243;49.048;8.396;2023-03-13T12:59:29;22.00;18.30
16271;DHT22;8243;49.048;8.396;2023-03-13T13:01:57;22.10;18.30
16271;DHT22;8243;49.048;8.396;2023-03-13T13:04:29;22.10;17.80
16271;DHT22;8243;49.048;8.396;2023-03-13T13:07:00;22.00;18.20
16271;DHT22;8243;49.048;8.396;2023-03-13T13:09:35;21.90;18.30
16271;DHT22;8243;49.048;8.396;2023-03-13T13:12:03;22.00;18.00
16271;DHT22;8243;49.048;8.396;2023-03-13T13:17:25;21.90;18.00
16271;DHT22;8243;49.048;8.396;2023-03-13T13:19:52;22.00;18.30
16271;DHT22;8243;49.048;8.396;2023-03-13T13:25:32;22.00;18.40
16271;DHT22;8243;49.048;8.396;2023-03-13T13:28:23;21.90;18.70
16271;DHT22;8243;49.048;8.396;2023-03-13T13:30:52;21.90;18.80
16271;DHT22;8243;49.048;8.396;2023-03-13T13:38:29;22.10;18.90
16271;DHT22;8243;49.048;8.396;2023-03-13T13:43:40;22.30;18.20
16271;DHT22;8243;49.048;8.396;2023-03-13T13:48:40;22.00;18.00
16271;DHT22;8243;49.048;8.396;2023-03-13T14:01:44;22.10;18.00
16271;DHT22;8243;49.048;8.396;2023-03-13T14:04:28;22.10;17.20
16271;DHT22;8243;49.048;8.396;2023-03-13T14:06:58;22.10;16.60
16271;DHT22;8243;49.048;8.396;2023-03-13T14:15:14;22.30;16.80
16271;DHT22;8243;49.048;8.396;2023-03-13T14:22:51;22.20;16.70
16271;DHT22;8243;49.048;8.396;2023-03-13T14:25:18;22.20;16.50
16271;DHT22;8243;49.048;8.396;2023-03-13T14:27:45;22.20;17.00
16271;DHT22;8243;49.048;8.396;2023-03-13T14:30:14;22.40;17.10
16271;DHT22;8243;49.048;8.396;2023-03-13T14:32:40;22.40;16.90
16271;DHT22;8243;49.048;8.396;2023-03-13T14:35:07;22.60;16.80
16271;DHT22;8243;49.048;8.396;2023-03-13T14:42:51;22.30;17.50
16271;DHT22;8243;49.048;8.396;2023-03-13T14:47:50;22.20;16.80
16271;DHT22;8243;49.048;8.396;2023-03-13T14:50:16;22.20;17.10
16271;DHT22;8243;49.048;8.396;2023-03-13T14:52:58;22.20;17.10
16271;DHT22;8243;49.048;8.396;2023-03-13T14:55:28;22.20;16.70
16271;DHT22;8243;49.048;8.396;2023-03-13T15:00:37;22.30;15.90
16271;DHT22;8243;49.048;8.396;2023-03-13T15:03:19;22.30;16.10
16271;DHT22;8243;49.048;8.396;2023-03-13T15:06:35;22.10;15.80
16271;DHT22;8243;49.048;8.396;2023-03-13T15:08:38;22.10;16.10
16271;DHT22;8243;49.048;8.396;2023-03-13T15:11:56;22.20;16.60
16271;DHT22;8243;49.048;8.396;2023-03-13T15:14:37;22.10;16.00
16271;DHT22;8243;49.048;8.396;2023-03-13T15:17:07;22.10;16.40
16271;DHT22;8243;49.048;8.396;2023-03-13T15:19:35;22.10;16.10
16271;DHT22;8243;49.048;8.396;2023-03-13T15:22:01;22.10;15.70
16271;DHT22;8243;49.048;8.396;2023-03-13T15:24:26;22.20;16.10
16271;DHT22;8243;49.048;8.396;2023-03-13T15:26:52;22.20;16.20
16271;DHT22;8243;49.048;8.396;2023-03-13T15:29:17;22.10;15.80
16271;DHT22;8243;49.048;8.396;2023-03-13T15:31:44;22.10;16.10
16271;DHT22;8243;49.048;8.396;2023-03-13T15:34:11;22.10;16.20
16271;DHT22;8243;49.048;8.396;2023-03-13T15:36:38;22.10;16.50
16271;DHT22;8243;49.048;8.396;2023-03-13T15:39:12;22.10;16.80
16271;DHT22;8243;49.048;8.396;2023-03-13T15:41:38;22.00;16.20
16271;DHT22;8243;49.048;8.396;2023-03-13T15:44:03;22.00;16.40
16271;DHT22;8243;49.048;8.396;2023-03-13T15:46:29;22.00;16.90
16271;DHT22;8243;49.048;8.396;2023-03-13T15:48:54;22.00;17.00
16271;DHT22;8243;49.048;8.396;2023-03-13T15:51:20;22.00;16.90
16271;DHT22;8243;49.048;8.396;2023-03-13T15:53:46;22.00;16.90
16271;DHT22;8243;49.048;8.396;2023-03-13T15:56:15;21.90;16.70
16271;DHT22;8243;49.048;8.396;2023-03-13T15:58:42;21.80;17.20
16271;DHT22;8243;49.048;8.396;2023-03-13T16:01:09;21.70;17.30
16271;DHT22;8243;49.048;8.396;2023-03-13T16:03:36;21.60;17.80
16271;DHT22;8243;49.048;8.396;2023-03-13T16:06:18;21.30;17.90
16271;DHT22;8243;49.048;8.396;2023-03-13T16:08:45;21.20;18.30
16271;DHT22;8243;49.048;8.396;2023-03-13T16:11:13;21.00;19.10
16271;DHT22;8243;49.048;8.396;2023-03-13T16:13:39;20.80;19.60
16271;DHT22;8243;49.048;8.396;2023-03-13T16:18:36;20.60;19.80
16271;DHT22;8243;49.048;8.396;2023-03-13T16:21:02;20.60;20.00
16271;DHT22;8243;49.048;8.396;2023-03-13T16:23:27;20.60;20.30
16271;DHT22;8243;49.048;8.396;2023-03-13T16:25:53;20.50;20.50
16271;DHT22;8243;49.048;8.396;2023-03-13T16:28:19;20.50;20.60
16271;DHT22;8243;49.048;8.396;2023-03-13T16:30:44;20.40;20.80
16271;DHT22;8243;49.048;8.396;2023-03-13T16:33:23;20.40;21.10
16271;DHT22;8243;49.048;8.396;2023-03-13T16:35:48;20.30;21.10
16271;DHT22;8243;49.048;8.396;2023-03-13T16:38:16;20.30;21.20
16271;DHT22;8243;49.048;8.396;2023-03-13T16:40:41;20.20;21.00
16271;DHT22;8243;49.048;8.396;2023-03-13T16:43:10;20.20;21.00
16271;DHT22;8243;49.048;8.396;2023-03-13T16:45:36;20.20;20.80
16271;DHT22;8243;49.048;8.396;2023-03-13T16:48:05;20.10;21.00
16271;DHT22;8243;49.048;8.396;2023-03-13T16:50:35;20.10;21.20
16271;DHT22;8243;49.048;8.396;2023-03-13T16:53:02;20.00;21.00
16271;DHT22;8243;49.048;8.396;2023-03-13T16:55:28;20.00;20.50
16271;DHT22;8243;49.048;8.396;2023-03-13T16:57:58;20.00;20.80
16271;DHT22;8243;49.048;8.396;2023-03-13T17:00:26;20.00;20.30
16271;DHT22;8243;49.048;8.396;2023-03-13T17:02:51;20.00;19.30
16271;DHT22;8243;49.048;8.396;2023-03-13T17:05:17;19.90;19.00
16271;DHT22;8243;49.048;8.396;2023-03-13T17:07:45;20.00;19.20
16271;DHT22;8243;49.048;8.396;2023-03-13T17:12:41;19.50;21.50
16271;DHT22;8243;49.048;8.396;2023-03-13T17:15:07;18.80;24.20
16271;DHT22;8243;49.048;8.396;2023-03-13T17:17:33;18.40;25.90
16271;DHT22;8243;49.048;8.396;2023-03-13T17:19:59;17.90;31.70
16271;DHT22;8243;49.048;8.396;2023-03-13T17:22:25;17.60;36.00
16271;DHT22;8243;49.048;8.396;2023-03-13T17:24:50;17.30;39.40
16271;DHT22;8243;49.048;8.396;2023-03-13T17:27:16;17.10;44.80
16271;DHT22;8243;49.048;8.396;2023-03-13T17:29:43;16.70;51.70
16271;DHT22;8243;49.048;8.396;2023-03-13T17:32:10;16.40;67.00
16271;DHT22;8243;49.048;8.396;2023-03-13T17:34:36;15.90;80.90
16271;DHT22;8243;49.048;8.396;2023-03-13T17:37:04;15.60;92.10